Time;durP1;ratioP1;P1;durP2;ratioP2;P2;SDS_P1;SDS_P2;PMS_P1;PMS_P2;Temp;Humidity;BMP_temperature;BMP_pressure;BME280_temperature;BME280_humidity;BME280_pressure;Samples;Min_cycle;Max_cycle;Signal;HPM_P1;HPM_P2
2021/10/17 00:00:49;;;;;;;9.43;5.78;;;23.00;57.60;;;;;;5210257;28;20071;-82
2021/10/17 00:03:22;;;;;;;8.77;5.20;;;23.00;57.70;;;;;;5210422;28;20061;-83
2021/10/17 00:05:54;;;;;;;8.55;5.40;;;23.00;57.60;;;;;;5213337;28;20055;-83
2021/10/17 00:08:27;;;;;;;14.25;5.75;;;23.00;57.70;;;;;;5219210;28;20258;-83
2021/10/17 00:11:00;;;;;;;8.87;5.47;;;23.00;57.70;;;;;;5202169;28;20544;-82
2021/10/17 00:13:32;;;;;;;11.00;5.82;;;23.00;57.60;;;;;;5219380;28;20051;-83
2021/10/17 00:16:05;;;;;;;9.43;5.07;;;23.00;57.60;;;;;;5240068;28;20583;-83
2021/10/17 00:18:38;;;;;;;12.85;5.60;;;23.00;57.70;;;;;;5231139;28;20313;-83
2021/10/17 00:21:14;;;;;;;8.07;5.20;;;23.00;57.70;;;;;;5217709;28;20044;-82
2021/10/17 00:23:46;;;;;;;10.55;5.28;;;23.00;58.30;;;;;;5231238;28;20067;-82
2021/10/17 00:26:19;;;;;;;7.82;5.30;;;23.00;57.60;;;;;;5230382;28;20060;-82
2021/10/17 00:28:51;;;;;;;9.93;5.30;;;23.00;57.70;;;;;;5229884;28;20049;-82
2021/10/17 00:31:24;;;;;;;6.82;4.40;;;23.00;57.70;;;;;;5198345;28;20405;-83
2021/10/17 00:33:57;;;;;;;;;;;23.00;57.60;;;;;;5230976;28;20041;-83
2021/10/17 00:36:33;;;;;;;6.15;4.63;;;23.00;57.70;;;;;;5229941;28;19928;-83
2021/10/17 00:39:05;;;;;;;10.05;5.38;;;22.90;57.70;;;;;;5213160;28;20056;-82
2021/10/17 00:41:38;;;;;;;10.37;4.63;;;23.00;57.70;;;;;;5213016;28;20061;-83
2021/10/17 00:44:19;;;;;;;7.65;5.38;;;23.00;57.70;;;;;;5214222;28;20064;-83
2021/10/17 00:46:52;;;;;;;9.48;4.80;;;23.00;57.70;;;;;;5221711;28;20052;-83
2021/10/17 00:49:24;;;;;;;13.32;4.70;;;23.00;57.70;;;;;;5195050;28;20045;-83
2021/10/17 00:51:57;;;;;;;11.38;5.00;;;23.00;57.70;;;;;;5212576;28;20049;-82
2021/10/17 00:54:30;;;;;;;7.90;4.28;;;23.00;57.80;;;;;;5211386;28;20060;-83
2021/10/17 00:57:02;;;;;;;10.88;5.15;;;23.00;57.80;;;;;;5210500;28;20373;-82
2021/10/17 00:59:35;;;;;;;9.20;4.65;;;23.00;57.80;;;;;;5210769;28;20511;-82
2021/10/17 01:02:08;;;;;;;7.63;5.03;;;23.00;57.80;;;;;;5225283;28;20695;-82
2021/10/17 01:04:41;;;;;;;11.03;5.00;;;23.00;57.70;;;;;;5228466;28;20049;-83
2021/10/17 01:07:14;;;;;;;5.97;4.00;;;23.00;57.80;;;;;;5230435;28;20057;-83
2021/10/17 01:09:46;;;;;;;10.05;4.80;;;23.00;57.80;;;;;;5227269;28;20049;-84
2021/10/17 01:12:23;;;;;;;7.50;4.45;;;22.90;57.70;;;;;;5227650;28;20748;-83
2021/10/17 01:14:55;;;;;;;6.55;4.57;;;23.00;57.70;;;;;;5244007;28;20045;-83
2021/10/17 01:17:28;;;;;;;6.38;4.30;;;23.00;57.70;;;;;;5194945;28;20056;-82
2021/10/17 01:20:02;;;;;;;;;;;23.00;57.70;;;;;;5231667;28;20081;-83
2021/10/17 01:22:36;;;;;;;7.28;4.00;;;22.90;57.70;;;;;;5229423;28;20391;-83
2021/10/17 01:25:10;;;;;;;4.90;4.15;;;22.90;57.70;;;;;;5200395;28;20059;-82
2021/10/17 01:27:42;;;;;;;;;;;22.90;57.70;;;;;;5239064;28;20048;-81
2021/10/17 01:30:16;;;;;;;6.30;4.45;;;22.90;57.70;;;;;;5233561;28;19924;-83
2021/10/17 01:32:51;;;;;;;5.60;4.22;;;22.90;57.70;;;;;;5213950;28;20044;-82
2021/10/17 01:35:24;;;;;;;6.82;4.00;;;22.90;57.70;;;;;;5234258;28;20040;-83
2021/10/17 01:37:56;;;;;;;7.97;4.13;;;22.90;57.70;;;;;;5216516;28;20239;-83
2021/10/17 01:40:29;;;;;;;7.63;4.18;;;22.90;57.70;;;;;;5232248;28;20045;-83
2021/10/17 01:43:04;;;;;;;9.32;4.30;;;22.90;57.70;;;;;;5231755;28;20040;-82
2021/10/17 01:45:57;;;;;;;9.02;4.53;;;22.90;57.70;;;;;;5230260;28;20207;-82
2021/10/17 01:48:31;;;;;;;6.40;3.95;;;22.90;57.80;;;;;;5230518;28;20417;-83
2021/10/17 01:51:05;;;;;;;4.90;3.90;;;22.90;57.80;;;;;;5233157;28;20117;-82
2021/10/17 01:53:37;;;;;;;6.88;4.72;;;22.90;57.90;;;;;;5232882;28;20041;-83
2021/10/17 01:56:10;;;;;;;7.37;4.20;;;22.90;57.90;;;;;;5200983;28;20457;-83
2021/10/17 01:58:42;;;;;;;5.07;3.97;;;22.90;57.90;;;;;;5225049;28;20778;-82
2021/10/17 02:01:16;;;;;;;9.27;4.35;;;22.90;57.90;;;;;;5246431;28;20036;-83
2021/10/17 02:03:49;;;;;;;9.50;4.18;;;22.90;57.90;;;;;;5210143;28;20052;-83
2021/10/17 02:06:21;;;;;;;6.67;4.37;;;22.90;58.00;;;;;;5217348;28;20044;-82
2021/10/17 02:08:59;;;;;;;8.45;4.50;;;22.90;58.00;;;;;;5225961;28;20036;-84
2021/10/17 02:11:32;;;;;;;;;;;22.90;58.00;;;;;;5218175;28;20508;-83
2021/10/17 02:14:06;;;;;;;9.82;4.63;;;22.90;58.00;;;;;;5218660;28;20391;-83
2021/10/17 02:16:38;;;;;;;8.05;4.15;;;22.90;58.00;;;;;;5217904;28;20076;-83
2021/10/17 02:19:11;;;;;;;8.00;4.03;;;22.90;58.00;;;;;;5212351;28;20548;-82
2021/10/17 02:21:43;;;;;;;9.60;4.55;;;22.90;58.00;;;;;;5199887;28;20055;-83
2021/10/17 02:24:17;;;;;;;;;;;22.90;58.00;;;;;;5231352;28;20107;-83
2021/10/17 02:26:52;;;;;;;6.88;4.22;;;22.90;58.00;;;;;;5234522;28;19924;-83
2021/10/17 02:29:47;;;;;;;7.55;4.38;;;22.90;58.00;;;;;;5232132;28;20056;-83
2021/10/17 02:32:33;;;;;;;4.85;3.75;;;22.90;58.00;;;;;;5226622;28;20045;-83
2021/10/17 02:35:18;;;;;;;8.25;4.13;;;22.90;57.90;;;;;;5231332;28;20051;-83
2021/10/17 02:37:53;;;;;;;8.15;4.30;;;22.90;57.90;;;;;;5232086;28;20386;-82
2021/10/17 02:40:26;;;;;;;5.63;3.50;;;22.90;57.90;;;;;;5217637;28;20040;-84
2021/10/17 02:42:59;;;;;;;5.25;4.05;;;22.90;58.20;;;;;;5206276;28;20048;-81
2021/10/17 02:45:32;;;;;;;5.93;3.73;;;22.90;57.90;;;;;;5196251;28;20505;-82
2021/10/17 02:48:05;;;;;;;8.50;4.15;;;22.90;57.90;;;;;;5214717;28;20655;-84
2021/10/17 02:50:38;;;;;;;;;;;22.90;57.80;;;;;;5189883;28;20060;-82
2021/10/17 02:53:10;;;;;;;6.60;4.13;;;22.90;57.90;;;;;;5214455;28;19925;-83
2021/10/17 02:55:43;;;;;;;7.25;3.50;;;22.90;58.00;;;;;;5223929;28;20363;-82
2021/10/17 02:58:15;;;;;;;6.05;3.80;;;22.90;58.60;;;;;;5231130;28;20053;-82
2021/10/17 03:00:52;;;;;;;6.18;3.42;;;22.90;57.90;;;;;;5211723;28;20049;-83
2021/10/17 03:03:25;;;;;;;10.02;4.03;;;22.90;57.90;;;;;;5208643;28;20473;-83
2021/10/17 03:05:58;;;;;;;8.00;4.03;;;22.90;57.90;;;;;;5243191;28;20071;-84
2021/10/17 03:08:31;;;;;;;8.35;4.03;;;22.90;57.90;;;;;;5223383;28;20051;-83
2021/10/17 03:11:06;;;;;;;5.53;4.13;;;22.90;57.90;;;;;;5218334;28;20051;-83
2021/10/17 03:13:42;;;;;;;6.10;3.45;;;22.90;57.90;;;;;;5202333;28;20053;-83
2021/10/17 03:16:21;;;;;;;5.43;3.20;;;22.90;57.90;;;;;;5219728;28;20072;-85
2021/10/17 03:18:54;;;;;;;6.57;3.42;;;22.90;58.60;;;;;;5226789;28;20056;-84
2021/10/17 03:21:27;;;;;;;6.50;3.13;;;22.90;58.00;;;;;;5202709;28;20489;-82
2021/10/17 03:23:59;;;;;;;6.37;3.57;;;22.90;58.00;;;;;;5229753;28;20071;-82
2021/10/17 03:26:32;;;;;;;4.88;3.40;;;22.90;58.00;;;;;;5224065;28;20059;-82
2021/10/17 03:29:04;;;;;;;7.70;3.73;;;22.90;58.60;;;;;;5224494;28;20052;-83
2021/10/17 03:31:41;;;;;;;4.65;3.20;;;22.90;58.00;;;;;;5197586;28;20036;-84
2021/10/17 03:34:15;;;;;;;8.02;2.95;;;22.90;58.00;;;;;;5208783;28;20048;-81
2021/10/17 03:36:47;;;;;;;7.70;4.03;;;22.90;58.10;;;;;;5210312;28;20040;-82
2021/10/17 03:39:20;;;;;;;8.02;3.53;;;22.90;58.10;;;;;;5212743;28;20394;-82
2021/10/17 03:41:53;;;;;;;8.48;4.28;;;22.90;58.10;;;;;;5210287;28;20663;-82
2021/10/17 03:44:25;;;;;;;7.13;3.20;;;22.90;58.30;;;;;;5212017;28;20047;-82
2021/10/17 03:46:58;;;;;;;8.15;3.90;;;22.90;58.20;;;;;;5221973;28;20500;-82
2021/10/17 03:49:33;;;;;;;6.78;3.80;;;22.90;58.30;;;;;;5192884;28;20047;-82
2021/10/17 03:52:06;;;;;;;7.72;3.33;;;22.90;58.30;;;;;;5208658;28;20052;-81
2021/10/17 03:54:41;;;;;;;12.32;4.63;;;22.90;58.30;;;;;;5225979;28;20048;-81
2021/10/17 03:57:14;;;;;;;12.60;3.53;;;22.90;58.30;;;;;;5192632;28;20048;-81
2021/10/17 03:59:47;;;;;;;13.15;3.60;;;22.90;58.30;;;;;;5209076;28;20053;-82
2021/10/17 04:02:19;;;;;;;9.85;3.85;;;22.90;58.40;;;;;;5223006;28;20478;-81
2021/10/17 04:04:52;;;;;;;6.43;3.97;;;22.90;58.40;;;;;;5224036;28;20406;-82
2021/10/17 04:07:32;;;;;;;7.18;3.42;;;22.90;58.40;;;;;;5207622;28;20044;-81
2021/10/17 04:10:06;;;;;;;5.70;3.42;;;22.90;58.40;;;;;;5224140;28;20392;-82
2021/10/17 04:12:39;;;;;;;5.35;3.47;;;22.90;58.40;;;;;;5224938;28;20051;-82
2021/10/17 04:15:13;;;;;;;;;;;22.90;58.50;;;;;;5212379;28;20033;-82
2021/10/17 04:17:48;;;;;;;5.13;3.25;;;22.90;58.50;;;;;;5185224;28;19925;-82
2021/10/17 04:20:21;;;;;;;7.23;3.30;;;22.90;58.50;;;;;;5228581;28;20056;-82
2021/10/17 04:22:53;;;;;;;7.63;3.50;;;22.90;58.50;;;;;;5207408;28;20045;-82
2021/10/17 04:25:26;;;;;;;5.90;3.05;;;22.90;58.50;;;;;;5230447;28;20052;-82
2021/10/17 04:27:59;;;;;;;7.63;3.40;;;22.90;58.50;;;;;;5224202;28;20044;-82
2021/10/17 04:30:32;;;;;;;9.80;3.53;;;22.90;58.50;;;;;;5200288;28;20056;-82
2021/10/17 04:33:04;;;;;;;5.80;3.10;;;22.90;58.60;;;;;;5206855;28;20048;-82
2021/10/17 04:35:40;;;;;;;6.32;3.40;;;22.90;58.50;;;;;;5223765;28;20040;-82
2021/10/17 04:38:13;;;;;;;6.38;3.10;;;22.90;58.50;;;;;;5225325;28;20032;-82
2021/10/17 04:40:46;;;;;;;8.82;3.50;;;22.90;58.50;;;;;;5208602;28;20059;-82
2021/10/17 04:43:19;;;;;;;11.77;3.72;;;22.90;58.60;;;;;;5204127;28;20618;-82
2021/10/17 04:45:52;;;;;;;;;;;23.00;58.70;;;;;;5187824;28;20052;-82
2021/10/17 04:48:24;;;;;;;11.13;3.28;;;22.90;58.70;;;;;;5193912;28;19924;-82
2021/10/17 04:50:57;;;;;;;11.68;3.53;;;23.00;58.70;;;;;;5208552;28;20045;-82
2021/10/17 04:53:29;;;;;;;10.57;3.55;;;23.00;58.70;;;;;;5224324;28;20048;-82
2021/10/17 04:56:02;;;;;;;12.15;3.55;;;23.00;58.70;;;;;;5226853;28;20055;-82
2021/10/17 04:58:36;;;;;;;11.20;3.53;;;23.00;58.70;;;;;;5210763;28;20405;-82
2021/10/17 05:01:10;;;;;;;14.93;4.45;;;23.10;58.70;;;;;;5205879;28;20396;-82
2021/10/17 05:03:44;;;;;;;;;;;23.10;58.70;;;;;;5196652;28;20048;-82
2021/10/17 05:06:16;;;;;;;15.30;4.22;;;23.00;58.70;;;;;;5223284;28;20301;-82
2021/10/17 05:08:48;;;;;;;11.05;3.63;;;23.10;58.70;;;;;;5210569;28;20055;-82
2021/10/17 05:11:25;;;;;;;;;;;23.10;58.80;;;;;;5222675;28;20056;-82
2021/10/17 05:13:59;;;;;;;16.25;3.50;;;23.10;58.80;;;;;;5207774;28;20313;-82
2021/10/17 05:16:32;;;;;;;17.85;4.05;;;23.10;58.80;;;;;;5213404;28;20052;-82
2021/10/17 05:19:05;;;;;;;11.05;3.88;;;23.10;58.80;;;;;;5209162;28;20412;-82
2021/10/17 05:21:40;;;;;;;12.38;3.92;;;23.10;58.70;;;;;;5208118;28;20075;-82
2021/10/17 05:24:12;;;;;;;10.60;3.50;;;23.10;58.70;;;;;;5208203;28;20048;-82
2021/10/17 05:26:45;;;;;;;13.13;3.55;;;23.10;58.70;;;;;;5211003;28;20455;-82
2021/10/17 05:29:17;;;;;;;18.67;3.97;;;23.20;58.80;;;;;;5205830;28;20044;-82
2021/10/17 05:31:50;;;;;;;12.38;3.95;;;23.10;58.70;;;;;;5229299;28;20296;-82
2021/10/17 05:34:23;;;;;;;11.60;3.78;;;23.20;58.70;;;;;;5196711;28;20072;-82
2021/10/17 05:36:56;;;;;;;13.55;3.72;;;23.20;58.70;;;;;;5211264;28;20048;-82
2021/10/17 05:39:28;;;;;;;7.78;3.47;;;23.20;58.60;;;;;;5227295;28;20044;-82
2021/10/17 05:42:03;;;;;;;11.48;3.95;;;23.20;58.60;;;;;;5209403;28;20040;-82
2021/10/17 05:44:36;;;;;;;11.38;3.38;;;23.20;58.60;;;;;;5196561;28;20040;-82
2021/10/17 05:47:08;;;;;;;8.63;3.38;;;23.20;58.60;;;;;;5197919;28;20063;-82
2021/10/17 05:49:41;;;;;;;13.27;3.50;;;23.20;58.60;;;;;;5230502;28;20044;-82
2021/10/17 05:52:13;;;;;;;8.43;3.40;;;23.20;58.60;;;;;;5230426;28;20041;-82
2021/10/17 05:54:46;;;;;;;6.78;3.45;;;23.20;58.60;;;;;;5209359;28;20561;-82
2021/10/17 05:57:22;;;;;;;12.80;4.20;;;23.20;58.60;;;;;;5206906;28;20040;-82
2021/10/17 05:59:54;;;;;;;10.40;3.55;;;23.20;58.60;;;;;;5214402;28;20048;-82
2021/10/17 06:02:27;;;;;;;16.63;4.53;;;23.20;58.60;;;;;;5222522;28;20067;-82
2021/10/17 06:05:02;;;;;;;11.13;3.72;;;23.30;58.70;;;;;;5202593;28;20235;-82
2021/10/17 06:07:36;;;;;;;10.82;3.53;;;23.30;58.70;;;;;;5208712;28;20045;-82
2021/10/17 06:10:12;;;;;;;17.33;4.53;;;23.30;58.70;;;;;;5205465;28;20052;-83
2021/10/17 06:12:45;;;;;;;15.98;4.10;;;23.30;58.80;;;;;;5222038;28;20376;-82
2021/10/17 06:15:20;;;;;;;14.00;4.60;;;23.30;58.80;;;;;;5204164;28;20041;-82
2021/10/17 06:17:53;;;;;;;22.50;4.20;;;23.30;58.80;;;;;;5217835;28;20056;-82
2021/10/17 06:20:25;;;;;;;18.70;3.85;;;23.30;58.90;;;;;;5208302;28;20488;-82
2021/10/17 06:22:58;;;;;;;12.70;4.20;;;23.30;58.80;;;;;;5216814;28;20216;-82
2021/10/17 06:25:31;;;;;;;17.92;4.32;;;23.30;58.80;;;;;;5218243;28;20393;-82
2021/10/17 06:28:03;;;;;;;15.70;4.17;;;23.30;58.90;;;;;;5207528;28;20447;-82
2021/10/17 06:30:37;;;;;;;16.25;3.83;;;23.30;58.90;;;;;;5215648;28;20052;-82
2021/10/17 06:33:10;;;;;;;15.70;3.88;;;23.30;58.80;;;;;;5201496;28;20040;-82
2021/10/17 06:35:42;;;;;;;17.25;4.35;;;23.30;58.80;;;;;;5201847;28;20042;-82
2021/10/17 06:38:15;;;;;;;14.23;4.53;;;23.30;58.80;;;;;;5202518;28;20689;-82
2021/10/17 06:40:48;;;;;;;14.95;4.30;;;23.30;58.90;;;;;;5201894;28;21356;-83
2021/10/17 06:43:20;;;;;;;9.65;3.78;;;23.40;58.90;;;;;;5198307;28;20051;-82
2021/10/17 06:46:14;;;;;;;10.75;3.30;;;23.30;58.80;;;;;;5225617;28;20041;-82
2021/10/17 06:48:48;;;;;;;16.05;3.60;;;23.30;58.90;;;;;;5197410;28;20052;-82
2021/10/17 06:51:21;;;;;;;14.35;4.15;;;23.30;58.90;;;;;;5204310;28;20397;-82
2021/10/17 06:53:54;;;;;;;14.30;4.20;;;23.30;58.90;;;;;;5228073;28;20444;-82
2021/10/17 06:56:27;;;;;;;;;;;23.30;58.90;;;;;;5222903;28;20040;-82
2021/10/17 06:58:59;;;;;;;24.35;4.25;;;23.30;58.90;;;;;;5188598;28;20262;-83
2021/10/17 07:01:32;;;;;;;14.68;4.30;;;23.30;58.90;;;;;;5204290;28;20048;-83
2021/10/17 07:04:05;;;;;;;18.77;3.87;;;23.30;58.90;;;;;;5206941;28;20049;-83
2021/10/17 07:06:44;;;;;;;12.18;3.47;;;23.30;58.90;;;;;;5200052;28;20060;-82
2021/10/17 07:09:19;;;;;;;20.20;3.97;;;23.30;58.90;;;;;;5197432;28;20418;-82
2021/10/17 07:11:57;;;;;;;10.98;3.55;;;23.40;59.00;;;;;;5186847;28;20056;-82
2021/10/17 07:14:31;;;;;;;12.48;3.47;;;23.40;59.00;;;;;;5182998;28;20057;-83
2021/10/17 07:17:29;;;;;;;14.60;3.67;;;23.30;58.90;;;;;;5179656;28;20052;-83
2021/10/17 07:20:07;;;;;;;8.68;3.53;;;23.40;59.00;;;;;;5211779;28;20582;-83
2021/10/17 07:22:41;;;;;;;11.65;3.50;;;23.40;59.00;;;;;;5205260;28;20374;-82
2021/10/17 07:25:16;;;;;;;10.50;3.70;;;23.40;59.00;;;;;;5212727;28;20068;-82
2021/10/17 07:27:52;;;;;;;9.27;3.10;;;23.40;59.10;;;;;;5191018;28;20056;-83
2021/10/17 07:30:25;;;;;;;11.02;3.85;;;23.40;59.10;;;;;;5209748;28;20040;-82
2021/10/17 07:32:58;;;;;;;10.82;3.20;;;23.40;59.10;;;;;;5190502;28;20048;-83
2021/10/17 07:35:32;;;;;;;9.48;2.88;;;23.40;59.10;;;;;;5206957;28;20676;-83
2021/10/17 07:38:05;;;;;;;5.38;2.92;;;23.40;59.10;;;;;;5194253;28;20052;-82
2021/10/17 07:40:38;;;;;;;9.40;3.35;;;23.40;59.10;;;;;;5183596;28;20067;-83
2021/10/17 07:43:10;;;;;;;19.00;3.80;;;23.40;59.30;;;;;;5200290;28;20045;-83
2021/10/17 07:45:43;;;;;;;11.27;3.63;;;23.40;59.50;;;;;;5199081;28;26177;-83
2021/10/17 07:48:16;;;;;;;;;;;23.40;59.50;;;;;;5200829;28;20044;-83
2021/10/17 07:50:53;;;;;;;12.30;2.97;;;23.40;59.60;;;;;;5198211;28;19936;-83
2021/10/17 07:53:30;;;;;;;11.82;3.65;;;23.40;59.60;;;;;;5193092;28;20223;-83
2021/10/17 07:56:03;;;;;;;16.10;3.42;;;23.40;59.70;;;;;;5200660;28;20040;-83
2021/10/17 07:58:40;;;;;;;13.10;4.15;;;23.40;59.70;;;;;;5194968;28;20405;-83
2021/10/17 08:01:13;;;;;;;16.55;4.15;;;23.40;59.80;;;;;;5152974;28;20075;-83
2021/10/17 08:04:00;;;;;;;15.98;3.53;;;23.40;59.70;;;;;;5211735;28;20052;-83
2021/10/17 08:06:41;;;;;;;12.70;3.22;;;23.40;59.80;;;;;;5198660;28;20052;-83
2021/10/17 08:09:14;;;;;;;10.32;3.92;;;23.40;59.60;;;;;;5199788;28;20131;-83
2021/10/17 08:11:49;;;;;;;8.07;3.35;;;23.40;59.50;;;;;;5204537;28;20036;-83
2021/10/17 08:14:22;;;;;;;10.05;3.17;;;23.40;59.40;;;;;;5195734;28;20052;-83
2021/10/17 08:16:58;;;;;;;16.50;3.70;;;23.40;59.30;;;;;;5189461;28;20044;-83
2021/10/17 08:19:54;;;;;;;7.05;2.90;;;23.40;59.20;;;;;;5213246;28;20485;-83
2021/10/17 08:22:26;;;;;;;9.75;2.75;;;23.40;59.10;;;;;;5197785;28;20048;-83
2021/10/17 08:25:06;;;;;;;11.00;2.95;;;23.40;59.10;;;;;;5180945;28;20048;-83
2021/10/17 08:27:41;;;;;;;7.13;2.85;;;23.40;59.00;;;;;;5200420;28;20507;-83
2021/10/17 08:30:13;;;;;;;8.57;3.00;;;23.40;59.00;;;;;;5192946;28;20044;-83
2021/10/17 08:32:56;;;;;;;6.97;2.75;;;23.40;58.90;;;;;;5193659;28;20447;-83
2021/10/17 08:35:31;;;;;;;11.05;3.15;;;23.40;58.90;;;;;;5178832;28;20048;-83
2021/10/17 08:38:04;;;;;;;8.82;4.95;;;23.40;59.40;;;;;;5197474;28;20040;-82
2021/10/17 08:40:56;;;;;;;5.13;4.63;;;23.30;54.50;;;;;;5212265;28;20053;-82
2021/10/17 08:43:31;;;;;;;7.80;5.03;;;23.30;51.10;;;;;;5202068;28;20048;-82
2021/10/17 08:46:35;;;;;;;5.72;4.90;;;23.20;50.70;;;;;;5199309;28;20055;-82
2021/10/17 08:49:17;;;;;;;6.88;4.85;;;23.10;50.60;;;;;;5204805;28;20049;-82
2021/10/17 08:51:50;;;;;;;7.78;5.55;;;23.00;50.60;;;;;;5212615;28;20052;-82
2021/10/17 08:54:23;;;;;;;27.90;6.20;;;22.90;50.50;;;;;;5199066;28;20040;-81
2021/10/17 08:57:04;;;;;;;21.60;4.93;;;22.80;52.00;;;;;;5217276;28;20045;-81
2021/10/17 08:59:37;;;;;;;20.17;3.90;;;22.80;53.00;;;;;;5214261;28;20045;-81
2021/10/17 09:02:14;;;;;;;10.77;3.60;;;22.80;53.70;;;;;;5209352;28;20088;-81
2021/10/17 09:05:09;;;;;;;14.60;3.80;;;22.80;54.40;;;;;;5202808;28;20227;-81
2021/10/17 09:07:55;;;;;;;13.20;3.55;;;22.80;54.90;;;;;;5210655;28;20059;-80
2021/10/17 09:10:38;;;;;;;14.30;3.70;;;22.90;55.30;;;;;;5201370;28;20053;-80
2021/10/17 09:13:14;;;;;;;13.45;3.40;;;22.90;55.80;;;;;;5222892;28;20843;-81
2021/10/17 09:15:46;;;;;;;12.23;3.25;;;22.90;56.10;;;;;;5222933;28;20040;-82
2021/10/17 09:18:20;;;;;;;14.23;3.30;;;23.00;56.60;;;;;;5199807;28;20055;-80
2021/10/17 09:21:01;;;;;;;8.20;3.38;;;23.00;56.50;;;;;;5214284;28;20536;-80
2021/10/17 09:23:37;;;;;;;9.98;2.97;;;23.00;56.70;;;;;;5203730;28;20052;-79
2021/10/17 09:26:13;;;;;;;8.75;3.33;;;23.00;56.80;;;;;;5197763;28;20787;-79
2021/10/17 09:28:47;;;;;;;8.90;3.22;;;23.00;56.90;;;;;;5213543;28;20059;-80
2021/10/17 09:31:20;;;;;;;;;;;23.10;56.90;;;;;;5212673;28;20041;-79
2021/10/17 09:33:55;;;;;;;7.05;2.60;;;23.00;56.90;;;;;;5212645;28;19920;-79
2021/10/17 09:36:33;;;;;;;6.88;2.53;;;23.10;56.90;;;;;;5211948;28;20036;-79
2021/10/17 09:39:17;;;;;;;7.93;2.60;;;23.10;56.90;;;;;;5232781;28;20045;-79
2021/10/17 09:42:21;;;;;;;4.78;2.20;;;23.10;56.90;;;;;;5212873;28;20848;-78
2021/10/17 09:45:22;;;;;;;13.43;2.38;;;23.10;56.80;;;;;;5211289;28;20622;-83
2021/10/17 09:47:56;;;;;;;6.43;2.80;;;23.10;56.80;;;;;;5197740;28;20439;-80
2021/10/17 09:50:29;;;;;;;7.60;2.58;;;23.10;57.20;;;;;;5212576;28;20059;-80
2021/10/17 09:53:04;;;;;;;5.43;2.60;;;23.10;57.40;;;;;;5235804;28;20064;-81
2021/10/17 09:55:36;;;;;;;8.00;2.50;;;23.20;57.60;;;;;;5220738;28;20340;-81
2021/10/17 09:58:09;;;;;;;9.35;2.85;;;23.20;57.70;;;;;;5230090;28;20056;-81
2021/10/17 10:00:43;;;;;;;12.45;2.92;;;23.20;58.10;;;;;;5236661;28;20053;-80
2021/10/17 10:03:19;;;;;;;6.95;2.65;;;23.30;58.20;;;;;;5220818;28;20056;-79
2021/10/17 10:05:55;;;;;;;5.85;2.72;;;23.30;58.20;;;;;;5221512;28;20436;-80
2021/10/17 10:08:29;;;;;;;9.90;2.80;;;23.30;58.40;;;;;;5216894;28;20075;-79
2021/10/17 10:45:20;;;;;;;9.52;2.63;;;23.50;58.60;;;;;;5198594;28;20423;-80
2021/10/17 10:48:05;;;;;;;12.02;3.30;;;23.50;58.40;;;;;;5212036;28;20056;-79
2021/10/17 10:50:53;;;;;;;8.73;2.60;;;23.50;58.40;;;;;;5212872;28;20321;-80
2021/10/17 10:53:44;;;;;;;6.22;2.65;;;23.50;58.30;;;;;;5205076;28;20413;-79
2021/10/17 10:56:40;;;;;;;6.30;2.25;;;23.60;58.40;;;;;;5200884;28;20044;-80
2021/10/17 10:59:15;;;;;;;10.55;2.70;;;23.60;58.20;;;;;;5200156;28;20087;-78
2021/10/17 11:02:07;;;;;;;6.10;2.63;;;23.70;58.20;;;;;;5203859;28;20074;-78
2021/10/17 11:04:44;;;;;;;6.63;2.65;;;23.70;58.00;;;;;;5197135;28;20056;-78
2021/10/17 11:07:35;;;;;;;5.50;2.60;;;23.80;58.50;;;;;;5203476;28;20091;-78
2021/10/17 11:10:23;;;;;;;4.55;2.50;;;23.90;57.70;;;;;;5208041;28;20052;-77
2021/10/17 11:12:58;;;;;;;6.15;2.65;;;24.00;57.60;;;;;;5196800;28;20467;-79
2021/10/17 11:15:38;;;;;;;8.55;2.33;;;24.10;57.40;;;;;;5200249;28;20362;-79
2021/10/17 11:18:12;;;;;;;4.10;2.63;;;24.10;57.30;;;;;;5182190;28;20047;-79
2021/10/17 11:20:49;;;;;;;6.63;2.58;;;24.20;57.20;;;;;;5221627;28;20834;-80
2021/10/17 11:23:27;;;;;;;6.15;2.50;;;24.20;57.10;;;;;;5198001;28;20299;-79
2021/10/17 11:26:04;;;;;;;8.63;2.45;;;24.20;57.10;;;;;;5206142;28;20480;-80
2021/10/17 11:28:39;;;;;;;6.60;2.42;;;24.20;57.00;;;;;;5203009;28;20052;-79
2021/10/17 11:31:14;;;;;;;7.72;2.80;;;24.30;57.10;;;;;;5197946;28;20415;-78
2021/10/17 11:33:47;;;;;;;4.80;2.42;;;24.30;57.00;;;;;;5199926;28;20045;-78
2021/10/17 11:36:21;;;;;;;4.60;2.63;;;24.40;56.90;;;;;;5200748;28;20421;-78
2021/10/17 11:38:55;;;;;;;7.18;2.30;;;24.40;56.90;;;;;;5198070;28;20594;-78
2021/10/17 11:41:27;;;;;;;7.05;2.75;;;24.50;56.90;;;;;;5215460;28;20639;-77
2021/10/17 11:44:00;;;;;;;5.57;2.28;;;24.50;56.70;;;;;;5225532;28;20040;-78
2021/10/17 11:46:34;;;;;;;7.30;2.37;;;24.60;56.70;;;;;;5227782;28;20053;-77
2021/10/17 11:49:12;;;;;;;6.25;2.50;;;24.60;56.60;;;;;;5224183;28;20056;-78
2021/10/17 11:51:44;;;;;;;7.07;2.33;;;24.70;56.50;;;;;;5222767;28;20045;-78
2021/10/17 11:54:16;;;;;;;12.50;2.85;;;24.70;56.40;;;;;;5228025;28;20277;-79
2021/10/17 11:56:57;;;;;;;9.40;2.60;;;24.70;56.30;;;;;;5225771;28;20058;-79
2021/10/17 11:59:30;;;;;;;4.85;2.40;;;24.70;56.20;;;;;;5238309;28;20469;-79
2021/10/17 12:02:32;;;;;;;7.40;2.77;;;24.70;56.10;;;;;;5237549;28;20032;-78
2021/10/17 12:05:17;;;;;;;5.03;2.40;;;24.70;56.10;;;;;;5225230;28;20115;-78
2021/10/17 12:07:56;;;;;;;7.75;2.45;;;24.70;56.10;;;;;;5242288;28;20071;-78
2021/10/17 12:10:30;;;;;;;4.65;2.17;;;24.70;56.20;;;;;;5227723;28;20261;-78
2021/10/17 12:13:03;;;;;;;6.10;2.10;;;24.70;56.30;;;;;;5231358;28;20052;-78
2021/10/17 12:15:40;;;;;;;7.38;2.10;;;24.70;56.30;;;;;;5227379;28;20583;-78
2021/10/17 12:18:12;;;;;;;9.38;2.60;;;24.70;56.30;;;;;;5222862;28;20075;-78
2021/10/17 12:20:45;;;;;;;7.53;2.60;;;24.70;56.30;;;;;;5228172;28;20037;-78
2021/10/17 12:23:21;;;;;;;7.78;2.47;;;24.80;56.30;;;;;;5237222;28;20044;-79
2021/10/17 12:26:20;;;;;;;9.75;2.72;;;24.80;56.40;;;;;;5220460;28;20548;-79
2021/10/17 12:29:14;;;;;;;6.40;2.65;;;24.90;56.40;;;;;;5219648;28;20075;-77
2021/10/17 12:31:52;;;;;;;7.38;2.85;;;24.90;56.30;;;;;;5237835;28;20401;-78
2021/10/17 12:34:41;;;;;;;10.48;2.33;;;25.00;56.50;;;;;;5224807;28;20055;-79
2021/10/17 12:37:18;;;;;;;4.45;2.40;;;25.10;56.20;;;;;;5214852;28;20048;-79
2021/10/17 12:40:04;;;;;;;7.28;2.40;;;25.10;56.00;;;;;;5220627;28;20533;-78
2021/10/17 12:42:52;;;;;;;4.40;2.40;;;25.10;55.90;;;;;;5219307;28;20524;-78
2021/10/17 12:45:31;;;;;;;6.55;2.20;;;25.20;55.90;;;;;;5217918;28;20178;-78
2021/10/17 12:48:05;;;;;;;4.30;2.15;;;25.30;55.90;;;;;;5211725;28;20045;-80
2021/10/17 12:50:38;;;;;;;12.88;2.53;;;25.30;55.70;;;;;;5218757;28;20056;-78
2021/10/17 12:53:12;;;;;;;7.88;2.33;;;25.30;55.70;;;;;;5222379;28;20059;-79
2021/10/17 12:55:44;;;;;;;3.13;2.25;;;25.40;55.60;;;;;;5221102;28;20029;-79
2021/10/17 12:58:26;;;;;;;7.25;2.78;;;25.40;55.50;;;;;;5221494;28;20071;-79
2021/10/17 13:01:05;;;;;;;5.82;2.55;;;25.50;55.40;;;;;;5238062;28;20049;-79
2021/10/17 13:03:38;;;;;;;5.55;2.60;;;25.60;55.40;;;;;;5211761;28;20068;-79
2021/10/17 13:06:10;;;;;;;3.43;2.20;;;25.60;55.30;;;;;;5211446;28;20048;-79
2021/10/17 13:08:50;;;;;;;4.55;2.33;;;25.60;55.10;;;;;;5183804;28;20052;-79
2021/10/17 13:11:23;;;;;;;4.80;2.58;;;25.70;55.00;;;;;;5189250;28;20048;-79
2021/10/17 13:13:55;;;;;;;6.77;1.87;;;25.70;54.90;;;;;;5201161;28;20413;-79
2021/10/17 13:16:30;;;;;;;6.00;2.60;;;25.80;54.90;;;;;;5216324;28;20048;-79
2021/10/17 13:19:02;;;;;;;9.75;2.42;;;25.90;54.80;;;;;;5207090;28;20397;-79
2021/10/17 13:21:35;;;;;;;6.57;2.78;;;25.90;54.80;;;;;;5210817;28;20425;-79
2021/10/17 13:24:08;;;;;;;10.20;3.30;;;25.90;54.70;;;;;;5218479;28;20055;-79
2021/10/17 13:26:48;;;;;;;11.23;3.33;;;26.00;54.70;;;;;;5208283;28;20052;-79
2021/10/17 13:29:20;;;;;;;12.60;3.05;;;26.00;54.60;;;;;;5202300;28;20041;-79
2021/10/17 13:31:53;;;;;;;9.82;3.05;;;26.00;54.60;;;;;;5213572;28;20044;-79
2021/10/17 13:34:25;;;;;;;14.60;2.88;;;26.10;54.50;;;;;;5210924;28;20074;-79
2021/10/17 13:37:01;;;;;;;13.23;3.65;;;26.10;54.50;;;;;;5198535;28;20048;-79
2021/10/17 13:39:33;;;;;;;5.72;2.53;;;26.20;54.50;;;;;;5242378;28;20056;-79
2021/10/17 13:42:06;;;;;;;7.23;2.67;;;26.20;54.40;;;;;;5229794;28;20393;-80
2021/10/17 13:44:39;;;;;;;5.40;2.80;;;26.20;54.40;;;;;;5232344;28;20450;-80
2021/10/17 13:47:11;;;;;;;10.33;2.80;;;26.20;54.30;;;;;;5230328;28;20052;-80
2021/10/17 13:49:46;;;;;;;12.00;3.33;;;26.30;54.40;;;;;;5226795;28;20346;-80
2021/10/17 13:52:18;;;;;;;8.48;2.80;;;26.30;54.30;;;;;;5232243;28;20468;-79
2021/10/17 13:54:50;;;;;;;7.13;2.58;;;26.30;54.20;;;;;;5234371;28;20056;-80
2021/10/17 13:57:23;;;;;;;8.57;3.10;;;26.30;54.20;;;;;;5222764;28;20376;-80
2021/10/17 13:59:56;;;;;;;10.95;2.28;;;26.40;54.10;;;;;;5241606;28;20045;-81
2021/10/17 14:02:29;;;;;;;12.90;3.13;;;26.40;54.10;;;;;;5229020;28;20211;-80